createdAt,value
2019-03-20T00:00:35.209Z,101830.96
2019-03-20T00:03:06.620Z,101831.98
2019-03-20T00:05:37.477Z,101836.53
2019-03-20T00:08:18.696Z,101840.54
2019-03-20T00:10:56.423Z,101835.12
2019-03-20T00:13:27.479Z,101830.91
2019-03-20T00:15:58.319Z,101836.55
2019-03-20T00:18:30.188Z,101836.81
2019-03-20T00:21:01.139Z,101833.33
2019-03-20T00:23:32.298Z,101832.02
2019-03-20T00:26:03.534Z,101826.92
2019-03-20T00:28:34.418Z,101835.56
2019-03-20T00:31:09.727Z,101828.35
2019-03-20T00:33:44.048Z,101824.11
2019-03-20T00:36:28.472Z,101822.21
2019-03-20T00:39:11.242Z,101829.77
2019-03-20T00:41:42.206Z,101826.91
2019-03-20T00:44:14.177Z,101828.84
2019-03-20T00:46:45.053Z,101827.33
2019-03-20T00:49:15.860Z,101826.73
2019-03-20T00:51:48.393Z,101825.64
2019-03-20T00:54:19.432Z,101830.33
2019-03-20T00:56:50.369Z,101827.88
2019-03-20T00:59:21.466Z,101826.16
2019-03-20T01:01:54.040Z,101828.08
2019-03-20T01:04:24.787Z,101823.19
2019-03-20T01:06:59.522Z,101819.06
2019-03-20T01:09:35.544Z,101819.98
2019-03-20T01:12:28.313Z,101818.45
2019-03-20T01:15:24.020Z,101827.45
2019-03-20T01:17:58.236Z,101824.22
2019-03-20T01:20:30.283Z,101824.88
2019-03-20T01:23:05.418Z,101821.11
2019-03-20T01:25:40.283Z,101817.88
2019-03-20T01:28:18.745Z,101822.59
2019-03-20T01:30:53.695Z,101826.20
2019-03-20T01:33:27.520Z,101824.28
2019-03-20T01:36:15.766Z,101825.70
2019-03-20T01:41:16.214Z,101827.08
2019-03-20T01:43:10.281Z,101820.54
2019-03-20T01:45:44.658Z,101822.95
2019-03-20T01:48:28.128Z,101825.83
2019-03-20T01:51:22.243Z,101823.12
2019-03-20T01:53:58.805Z,101832.06
2019-03-20T01:56:32.548Z,101831.63
2019-03-20T01:59:09.209Z,101835.86
2019-03-20T02:02:14.414Z,101840.70
2019-03-20T02:04:22.497Z,101842.77
2019-03-20T02:07:06.718Z,101835.33
2019-03-20T02:09:43.190Z,101838.94
2019-03-20T02:12:30.673Z,101840.15
2019-03-20T02:15:16.260Z,101840.86
2019-03-20T02:17:49.390Z,101839.01
2019-03-20T02:20:25.934Z,101842.11
2019-03-20T02:23:00.415Z,101838.34
2019-03-20T02:25:37.316Z,101843.28
2019-03-20T02:28:16.629Z,101840.73
2019-03-20T02:30:59.053Z,101846.30
2019-03-20T02:33:36.294Z,101854.95
2019-03-20T02:36:14.192Z,101850.59
2019-03-20T02:38:47.725Z,101853.13
2019-03-20T02:41:34.331Z,101855.06
2019-03-20T02:44:05.198Z,101857.77
2019-03-20T02:46:56.791Z,101854.55
2019-03-20T02:49:36.603Z,101850.44
2019-03-20T02:52:19.447Z,101855.84
2019-03-20T02:54:58.212Z,101856.81
2019-03-20T02:57:33.163Z,101867.55
2019-03-20T03:00:16.131Z,101864.65
2019-03-20T03:03:01.330Z,101865.02
2019-03-20T03:05:33.964Z,101867.70
2019-03-20T03:08:19.046Z,101870.89
2019-03-20T03:10:55.714Z,101871.13
2019-03-20T03:13:34.656Z,101868.13
2019-03-20T03:16:05.339Z,101867.45
2019-03-20T03:18:36.057Z,101870.59
2019-03-20T03:21:06.842Z,101868.77
2019-03-20T03:23:41.150Z,101876.61
2019-03-20T03:26:12.023Z,101874.86
2019-03-20T03:28:42.868Z,101869.06
2019-03-20T03:31:14.106Z,101878.98
2019-03-20T03:33:54.690Z,101875.09
2019-03-20T03:36:25.450Z,101874.57
2019-03-20T03:38:56.351Z,101877.36
2019-03-20T03:41:28.703Z,101880.84
2019-03-20T03:43:59.482Z,101879.41
2019-03-20T03:46:33.454Z,101879.44
2019-03-20T03:49:06.599Z,101888.59
2019-03-20T03:51:37.792Z,101889.33
2019-03-20T03:54:08.931Z,101888.55
2019-03-20T03:56:40.205Z,101893.66
2019-03-20T03:59:13.652Z,101892.35
2019-03-20T04:01:46.106Z,101895.78
2019-03-20T04:04:17.519Z,101897.01
2019-03-20T04:06:53.531Z,101890.63
2019-03-20T04:09:25.549Z,101901.32
2019-03-20T04:11:59.540Z,101896.11
2019-03-20T04:14:30.637Z,101892.98
2019-03-20T04:17:01.384Z,101898.61
2019-03-20T04:19:33.695Z,101897.80
2019-03-20T04:22:08.594Z,101898.04
2019-03-20T04:24:39.333Z,101901.34
2019-03-20T04:27:11.894Z,101906.05
2019-03-20T04:29:44.116Z,101908.03
2019-03-20T04:32:15.071Z,101915.50
2019-03-20T04:34:46.397Z,101915.76
2019-03-20T04:37:17.489Z,101919.00
2019-03-20T04:39:49.603Z,101916.92
2019-03-20T04:42:20.395Z,101914.39
2019-03-20T04:44:52.473Z,101913.00
2019-03-20T04:47:23.210Z,101915.68
2019-03-20T04:49:53.963Z,101922.29
2019-03-20T04:52:26.798Z,101921.37
2019-03-20T04:54:57.643Z,101915.69
2019-03-20T04:57:29.886Z,101915.91
2019-03-20T05:00:00.786Z,101911.73
2019-03-20T05:02:33.768Z,101910.48
2019-03-20T05:05:06.569Z,101908.25
2019-03-20T05:07:38.653Z,101908.34
2019-03-20T05:10:14.383Z,101919.55
2019-03-20T05:12:45.205Z,101926.66
2019-03-20T05:15:16.490Z,101937.09
2019-03-20T05:17:49.057Z,101930.16
2019-03-20T05:20:22.064Z,101923.30
2019-03-20T05:22:52.545Z,101933.70
2019-03-20T05:25:23.284Z,101930.67
2019-03-20T05:27:56.465Z,101933.62
2019-03-20T05:30:27.178Z,101931.83
2019-03-20T05:32:58.194Z,101930.73
2019-03-20T05:35:28.845Z,101936.13
2019-03-20T05:38:00.958Z,101937.28
2019-03-20T05:40:31.977Z,101943.50
2019-03-20T05:43:03.082Z,101952.75
2019-03-20T05:45:33.912Z,101955.80
2019-03-20T05:48:04.737Z,101961.39
2019-03-20T05:50:38.080Z,101966.98
2019-03-20T05:53:14.858Z,101968.05
2019-03-20T05:55:45.589Z,101976.39
2019-03-20T05:58:18.990Z,101960.47
2019-03-20T06:00:51.384Z,101966.67
2019-03-20T06:03:22.263Z,101969.45
2019-03-20T06:05:56.482Z,101985.04
2019-03-20T06:08:28.453Z,101977.89
2019-03-20T06:10:59.415Z,101976.77
2019-03-20T06:13:30.651Z,101976.48
2019-03-20T06:16:06.103Z,101981.19
2019-03-20T06:18:37.493Z,101981.10
2019-03-20T06:21:11.743Z,101981.83
2019-03-20T06:23:47.152Z,101987.74
2019-03-20T06:26:23.633Z,101990.59
2019-03-20T06:28:53.975Z,101995.02
2019-03-20T06:31:25.013Z,101999.84
2019-03-20T06:33:56.375Z,102003.80
2019-03-20T06:36:28.334Z,102002.66
2019-03-20T06:39:09.224Z,102004.59
2019-03-20T06:41:49.867Z,102004.66
2019-03-20T06:44:20.609Z,102012.05
2019-03-20T06:46:58.532Z,102012.09
2019-03-20T06:49:32.354Z,102011.27
2019-03-20T06:52:03.691Z,102009.23
2019-03-20T06:54:34.634Z,102021.45
2019-03-20T06:57:05.848Z,102015.97
2019-03-20T07:00:41.917Z,102018.70
2019-03-20T07:04:07.395Z,102020.20
2019-03-20T07:06:51.290Z,102020.04
2019-03-20T07:09:37.945Z,102018.45
2019-03-20T07:12:11.357Z,102020.27
2019-03-20T07:14:44.454Z,102020.58
2019-03-20T07:17:15.308Z,102024.31
2019-03-20T07:19:46.609Z,102028.48
2019-03-20T07:22:17.401Z,102034.13
2019-03-20T07:24:51.135Z,102032.64
2019-03-20T07:27:22.070Z,102037.72
2019-03-20T07:29:53.031Z,102037.23
2019-03-20T07:32:23.824Z,102040.34
2019-03-20T07:34:55.290Z,102042.02
2019-03-20T07:37:26.740Z,102043.03
2019-03-20T07:39:57.701Z,102043.91
2019-03-20T07:42:29.631Z,102044.83
2019-03-20T07:45:00.429Z,102046.86
2019-03-20T07:47:31.336Z,102045.40
2019-03-20T07:50:04.160Z,102049.12
2019-03-20T07:52:35.018Z,102047.01
2019-03-20T07:55:29.458Z,102046.10
2019-03-20T07:57:47.857Z,102049.33
2019-03-20T08:00:18.693Z,102054.77
2019-03-20T08:02:50.361Z,102056.66
2019-03-20T08:05:29.206Z,102062.27
2019-03-20T08:08:07.192Z,102058.59
2019-03-20T08:10:38.123Z,102064.99
2019-03-20T08:13:13.729Z,102068.89
2019-03-20T08:15:47.186Z,102064.27
2019-03-20T08:18:21.786Z,102063.45
2019-03-20T08:20:55.501Z,102068.17
2019-03-20T08:23:30.874Z,102072.70
2019-03-20T08:26:16.088Z,102063.42
2019-03-20T08:29:05.890Z,102059.27
2019-03-20T08:31:40.128Z,102065.23
2019-03-20T08:35:00.327Z,102065.22
2019-03-20T08:37:34.546Z,102068.31
2019-03-20T08:40:09.966Z,102065.05
2019-03-20T08:42:42.352Z,102068.02
2019-03-20T08:45:26.143Z,102071.64
2019-03-20T08:48:04.883Z,102068.75
2019-03-20T08:50:50.498Z,102070.48
2019-03-20T08:53:31.984Z,102065.30
2019-03-20T08:56:23.478Z,102065.25
2019-03-20T08:59:00.592Z,102066.41
2019-03-20T09:01:48.018Z,102061.59
2019-03-20T09:04:28.925Z,102063.75
2019-03-20T09:07:15.740Z,102069.25
2019-03-20T09:10:04.936Z,102066.06
2019-03-20T09:12:49.635Z,102069.33
2019-03-20T09:15:28.112Z,102061.00
2019-03-20T09:21:59.309Z,102064.24
2019-03-20T09:24:52.230Z,102068.77
2019-03-20T09:27:54.608Z,102066.86
2019-03-20T09:30:36.745Z,102067.34
2019-03-20T09:33:52.040Z,102075.65
2019-03-20T09:36:42.407Z,102073.84
2019-03-20T09:39:11.717Z,102083.69
2019-03-20T09:41:56.998Z,102071.74
2019-03-20T09:44:30.459Z,102075.40
2019-03-20T09:47:44.132Z,102074.22
2019-03-20T09:50:27.199Z,102079.80
2019-03-20T09:53:27.334Z,102077.12
2019-03-20T09:56:00.653Z,102071.88
2019-03-20T09:58:36.780Z,102075.27
2019-03-20T10:01:25.464Z,102074.33
2019-03-20T10:04:47.276Z,102078.44
2019-03-20T10:07:25.219Z,102079.56
2019-03-20T10:10:01.223Z,102090.06
2019-03-20T10:13:04.923Z,102087.48
2019-03-20T10:15:42.757Z,102081.30
2019-03-20T10:18:45.473Z,102078.94
2019-03-20T10:21:44.271Z,102082.36
2019-03-20T10:24:40.333Z,102081.81
2019-03-20T10:27:18.576Z,102082.80
2019-03-20T10:30:01.588Z,102078.03
2019-03-20T10:32:54.868Z,102079.22
2019-03-20T10:35:57.765Z,102072.30
2019-03-20T10:38:33.119Z,102076.83
2019-03-20T10:41:16.133Z,102066.52
2019-03-20T10:43:56.379Z,102063.37
2019-03-20T10:46:36.037Z,102068.48
2019-03-20T10:49:16.639Z,102064.39
2019-03-20T10:52:08.910Z,102067.72
2019-03-20T10:54:36.759Z,102071.42
2019-03-20T10:57:09.409Z,102064.37
2019-03-20T10:59:49.160Z,102071.28
2019-03-20T11:02:22.317Z,102076.98
2019-03-20T11:05:16.498Z,102071.34
2019-03-20T11:08:05.197Z,102066.98
2019-03-20T11:10:44.788Z,102067.70
2019-03-20T11:13:20.241Z,102069.09
2019-03-20T11:15:52.965Z,102066.66
2019-03-20T11:18:30.256Z,102064.50
2019-03-20T11:21:08.854Z,102062.28
2019-03-20T11:23:44.813Z,102057.31
2019-03-20T11:26:19.981Z,102059.03
2019-03-20T11:29:01.022Z,102059.42
2019-03-20T11:31:53.270Z,102059.27
2019-03-20T11:34:42.495Z,102049.81
2019-03-20T11:37:24.186Z,102047.88
2019-03-20T11:39:59.059Z,102044.95
2019-03-20T11:42:40.875Z,102047.92
2019-03-20T11:45:13.959Z,102047.11
2019-03-20T11:47:56.961Z,102049.52
2019-03-20T11:50:49.763Z,102039.19
2019-03-20T11:53:34.159Z,102037.24
2019-03-20T11:56:02.932Z,102036.87
2019-03-20T11:58:42.081Z,102035.52
2019-03-20T12:01:43.093Z,102037.08
2019-03-20T12:04:21.043Z,102028.05
2019-03-20T12:07:16.851Z,102029.38
2019-03-20T12:09:52.129Z,102024.69
2019-03-20T12:12:30.980Z,102012.05
2019-03-20T12:15:02.091Z,102009.56
2019-03-20T12:17:37.847Z,102009.56
2019-03-20T12:20:22.079Z,101997.93
2019-03-20T12:22:57.411Z,101996.41
2019-03-20T12:25:36.884Z,101995.91
2019-03-20T12:28:19.961Z,101999.14
2019-03-20T12:31:09.212Z,102000.63
2019-03-20T12:34:03.959Z,101993.50
2019-03-20T12:36:51.410Z,101995.69
2019-03-20T12:39:52.782Z,101992.39
2019-03-20T12:42:24.800Z,101992.78
2019-03-20T12:44:58.469Z,101988.52
2019-03-20T12:47:29.345Z,101986.53
2019-03-20T12:50:09.052Z,101984.34
2019-03-20T12:52:47.499Z,101974.73
2019-03-20T12:55:24.654Z,101982.66
2019-03-20T12:57:55.936Z,101979.78
2019-03-20T13:00:31.214Z,101978.57
2019-03-20T13:03:04.101Z,101973.70
2019-03-20T13:05:35.090Z,101975.23
2019-03-20T13:08:11.149Z,101980.13
2019-03-20T13:10:44.635Z,101976.08
2019-03-20T13:13:19.086Z,101972.77
2019-03-20T13:15:55.269Z,101976.06
2019-03-20T13:18:28.944Z,101982.69
2019-03-20T13:21:13.373Z,101985.16
2019-03-20T13:23:54.636Z,101982.57
2019-03-20T13:26:36.430Z,101984.19
2019-03-20T13:29:35.323Z,101981.73
2019-03-20T13:32:28.994Z,101979.25
2019-03-20T13:35:09.275Z,101974.70
2019-03-20T13:37:43.089Z,101972.86
2019-03-20T13:40:28.758Z,101980.30
2019-03-20T13:43:40.251Z,101977.20
2019-03-20T13:53:05.932Z,101972.87
2019-03-20T13:56:19.369Z,101977.17
2019-03-20T13:59:26.684Z,101985.39
2019-03-20T14:02:43.128Z,101971.59
2019-03-20T14:06:09.656Z,101980.47
2019-03-20T14:11:30.657Z,101977.97
2019-03-20T14:14:11.864Z,101976.51
2019-03-20T14:16:45.081Z,101964.76
2019-03-20T14:19:26.549Z,101967.69
2019-03-20T14:22:16.373Z,101963.68
2019-03-20T14:24:55.680Z,101962.44
2019-03-20T14:27:29.440Z,101960.94
2019-03-20T14:31:07.520Z,101955.81
2019-03-20T14:33:08.150Z,101952.31
2019-03-20T14:36:02.075Z,101947.98
2019-03-20T14:38:42.676Z,101945.30
2019-03-20T14:41:22.568Z,101945.66
2019-03-20T14:44:11.943Z,101946.97
2019-03-20T14:46:57.803Z,101940.75
2019-03-20T14:49:51.879Z,101932.45
2019-03-20T14:53:24.633Z,101941.39
2019-03-20T14:56:02.980Z,101941.70
2019-03-20T14:58:48.454Z,101942.55
2019-03-20T15:04:44.560Z,101936.00
2019-03-20T15:07:33.511Z,101929.51
2019-03-20T15:10:20.890Z,101931.30
2019-03-20T15:13:52.545Z,101940.58
2019-03-20T15:16:39.523Z,101935.11
2019-03-20T15:19:29.357Z,101939.72
2019-03-20T15:23:31.987Z,101940.16
2019-03-20T15:26:06.645Z,101937.44
2019-03-20T15:29:21.019Z,101930.50
2019-03-20T15:33:17.183Z,101929.34
2019-03-20T15:40:15.078Z,101943.81
2019-03-20T15:42:39.420Z,101942.96
2019-03-20T15:45:13.353Z,101934.69
2019-03-20T15:47:50.204Z,101919.20
2019-03-20T15:50:46.863Z,101935.05
2019-03-20T15:53:16.718Z,101930.84
2019-03-20T15:55:57.111Z,101928.30
2019-03-20T15:58:36.156Z,101925.66
2019-03-20T16:01:09.570Z,101915.42
2019-03-20T16:03:42.026Z,101917.94
2019-03-20T16:06:16.037Z,101917.59
2019-03-20T16:08:47.552Z,101925.81
2019-03-20T16:11:18.730Z,101925.37
2019-03-20T16:17:07.194Z,101920.71
2019-03-20T16:18:54.823Z,101923.77
2019-03-20T16:19:38.633Z,101921.27
2019-03-20T16:22:11.441Z,101928.98
2019-03-20T16:24:42.578Z,101935.42
2019-03-20T16:27:21.594Z,101938.26
2019-03-20T16:30:01.021Z,101944.11
2019-03-20T16:32:33.993Z,101946.36
2019-03-20T16:35:07.441Z,101941.27
2019-03-20T16:37:40.258Z,101943.69
2019-03-20T16:40:23.326Z,101945.97
2019-03-20T16:43:02.240Z,101948.99
2019-03-20T16:45:45.279Z,101944.67
2019-03-20T16:48:18.019Z,101937.63
2019-03-20T16:50:50.406Z,101928.08
2019-03-20T16:53:29.022Z,101929.82
2019-03-20T16:56:06.509Z,101925.73
2019-03-20T16:58:37.997Z,101925.63
2019-03-20T17:01:13.637Z,101922.20
2019-03-20T17:03:51.240Z,101929.34
2019-03-20T17:06:23.780Z,101929.69
2019-03-20T17:08:55.972Z,101941.91
2019-03-20T17:12:00.385Z,101938.91
2019-03-20T17:14:32.037Z,101945.58
2019-03-20T17:17:05.522Z,101947.35
2019-03-20T17:19:40.095Z,101947.69
2019-03-20T17:22:11.137Z,101952.03
2019-03-20T17:24:44.451Z,101951.70
2019-03-20T17:27:17.543Z,101955.77
2019-03-20T17:29:49.465Z,101952.75
2019-03-20T17:32:25.527Z,101952.76
2019-03-20T17:35:03.281Z,101947.12
2019-03-20T17:37:34.457Z,101943.26
2019-03-20T17:40:08.975Z,101950.86
2019-03-20T17:42:45.874Z,101951.41
2019-03-20T17:45:18.680Z,101955.63
2019-03-20T17:47:52.867Z,101958.53
2019-03-20T17:50:30.865Z,101966.00
2019-03-20T17:53:05.123Z,101968.34
2019-03-20T17:55:41.736Z,101972.70
2019-03-20T17:58:19.076Z,101973.15
2019-03-20T18:00:51.312Z,101973.94
2019-03-20T18:03:22.185Z,101975.69
2019-03-20T18:05:55.584Z,101967.69
2019-03-20T18:08:26.491Z,101972.42
2019-03-20T18:11:01.819Z,101971.23
2019-03-20T18:13:35.320Z,101975.82
2019-03-20T18:16:06.442Z,101975.12
2019-03-20T18:18:41.839Z,101985.00
2019-03-20T18:21:15.023Z,101988.39
2019-03-20T18:23:47.709Z,101989.89
2019-03-20T18:26:25.896Z,101992.91
2019-03-20T18:29:00.616Z,102000.21
2019-03-20T18:31:34.158Z,101996.37
2019-03-20T18:34:06.094Z,101998.28
2019-03-20T18:36:40.023Z,102002.86
2019-03-20T18:39:35.843Z,102003.72
2019-03-20T18:41:57.961Z,102004.96
2019-03-20T18:44:26.505Z,102006.84
2019-03-20T18:47:18.505Z,102009.13
2019-03-20T18:49:52.656Z,102017.02
2019-03-20T18:52:26.964Z,102012.82
2019-03-20T18:55:06.290Z,102007.13
2019-03-20T18:57:48.716Z,102011.14
2019-03-20T19:00:24.419Z,102015.47
2019-03-20T19:03:01.120Z,102019.51
2019-03-20T19:05:50.349Z,102014.73
2019-03-20T19:08:56.691Z,102011.89
2019-03-20T19:11:28.551Z,102008.83
2019-03-20T19:14:02.000Z,102011.28
2019-03-20T19:16:41.120Z,102022.42
2019-03-20T19:19:58.075Z,102016.99
2019-03-20T19:22:47.724Z,102022.28
2019-03-20T19:25:40.751Z,102022.88
2019-03-20T19:28:42.979Z,102024.95
2019-03-20T19:31:14.108Z,102028.66
2019-03-20T19:33:45.046Z,102026.36
2019-03-20T19:36:20.793Z,102030.70
2019-03-20T19:38:53.601Z,102026.47
2019-03-20T19:41:34.660Z,102034.34
2019-03-20T19:44:05.904Z,102031.43
2019-03-20T19:46:38.482Z,102023.81
2019-03-20T19:49:13.419Z,102024.18
2019-03-20T19:51:48.044Z,102020.45
2019-03-20T19:54:21.910Z,102022.59
2019-03-20T19:56:55.314Z,102031.60
2019-03-20T19:59:27.271Z,102027.08
2019-03-20T20:01:59.962Z,102018.77
2019-03-20T20:04:35.240Z,102022.01
2019-03-20T20:07:10.741Z,102027.53
2019-03-20T20:09:43.058Z,102026.46
2019-03-20T20:12:15.346Z,102027.05
2019-03-20T20:14:52.610Z,102027.13
2019-03-20T20:17:24.604Z,102029.94
2019-03-20T20:20:02.828Z,102028.06
2019-03-20T20:22:38.515Z,102026.95
2019-03-20T20:25:09.429Z,102027.61
2019-03-20T20:27:40.499Z,102034.48
2019-03-20T20:30:19.980Z,102030.08
2019-03-20T20:32:52.638Z,102032.77
2019-03-20T20:35:28.961Z,102031.39
2019-03-20T20:38:04.462Z,102034.59
2019-03-20T20:40:41.523Z,102034.02
2019-03-20T20:43:19.783Z,102036.08
2019-03-20T20:45:54.759Z,102031.16
2019-03-20T20:48:25.820Z,102030.84
2019-03-20T20:51:02.500Z,102027.74
2019-03-20T20:53:36.133Z,102021.88
2019-03-20T20:56:10.243Z,102022.08
2019-03-20T20:58:45.933Z,102032.97
2019-03-20T21:01:24.237Z,102027.86
2019-03-20T21:03:58.007Z,102031.86
2019-03-20T21:06:34.398Z,102040.33
2019-03-20T21:09:15.517Z,102038.84
2019-03-20T21:11:50.038Z,102045.05
2019-03-20T21:14:29.490Z,102034.73
2019-03-20T21:17:15.097Z,102036.85
2019-03-20T21:19:52.309Z,102037.17
2019-03-20T21:23:29.410Z,102031.13
2019-03-20T21:26:05.908Z,102045.34
2019-03-20T21:29:49.288Z,102048.89
2019-03-20T21:32:40.734Z,102048.59
2019-03-20T21:36:24.624Z,102043.36
2019-03-20T21:39:10.991Z,102042.47
2019-03-20T21:43:07.573Z,102048.47
2019-03-20T21:46:26.078Z,102046.88
2019-03-20T21:49:11.342Z,102047.20
2019-03-20T21:52:04.317Z,102053.27
2019-03-20T21:55:46.429Z,102064.63
2019-03-20T21:58:44.625Z,102069.84
2019-03-20T22:02:30.486Z,102066.84
2019-03-20T22:05:10.098Z,102068.66
2019-03-20T22:07:44.112Z,102067.16
2019-03-20T22:11:22.269Z,102068.27
2019-03-20T22:14:04.049Z,102076.97
2019-03-20T22:17:30.865Z,102072.86
2019-03-20T22:20:19.395Z,102079.34
2019-03-20T22:23:56.818Z,102078.66
2019-03-20T22:27:13.192Z,102080.31
2019-03-20T22:29:45.232Z,102083.48
2019-03-20T22:33:23.856Z,102088.49
2019-03-20T22:36:18.906Z,102093.06
2019-03-20T22:40:07.608Z,102089.42
2019-03-20T22:43:04.818Z,102092.83
2019-03-20T22:46:46.398Z,102101.28
2019-03-20T22:50:02.252Z,102101.13
2019-03-20T22:53:19.607Z,102108.44
2019-03-20T22:56:31.637Z,102115.80
2019-03-20T22:59:05.756Z,102116.19
2019-03-20T23:02:11.295Z,102123.72
2019-03-20T23:04:52.241Z,102119.95
2019-03-20T23:07:29.522Z,102127.70
2019-03-20T23:10:02.633Z,102127.06
2019-03-20T23:12:35.490Z,102128.01
2019-03-20T23:15:11.934Z,102137.89
2019-03-20T23:17:43.042Z,102132.08
2019-03-20T23:20:21.667Z,102133.49
2019-03-20T23:22:57.034Z,102137.18
2019-03-20T23:25:28.758Z,102136.69
2019-03-20T23:28:02.472Z,102143.56
2019-03-20T23:30:38.175Z,102132.96
2019-03-20T23:33:19.365Z,102135.97
2019-03-20T23:35:54.625Z,102134.28
2019-03-20T23:38:40.573Z,102136.01
2019-03-20T23:41:13.465Z,102129.12
2019-03-20T23:43:54.292Z,102124.31
2019-03-20T23:46:33.510Z,102131.97
2019-03-20T23:49:17.105Z,102128.84
2019-03-20T23:51:51.253Z,102130.75
2019-03-20T23:54:34.878Z,102129.93
2019-03-20T23:57:24.163Z,102131.42
